Flight Track Log - Related Links

Times and Time Zones

All times are in EDT time to prevent confusion due to time zone crossing. See the JST677 flight status page for this flight to view local times or setup timezone preferences in your user account.

Time Position Orientation Groundspeed Altitude Reporting Facility
EDT Latitude Longitude Course Direction KTS MPH feet Rate Location/Type
Thu 01:02:42 PM -12.4190 130.8930 109° East 167 192 700  Level FlightAware ADS-B
Thu 01:03:12 PM -12.4270 130.9180 108° East 188 216 1,600 1,304 Climbing FlightAware ADS-B
Thu 01:03:28 PM -12.4323 130.9330 108° East 179 206 1,700 720 Climbing Aus ATC (RADAR)
Thu 01:03:37 PM -12.4350 130.9410 108° East 219 252 1,900 1,231 Climbing FlightAware ADS-B
Thu 01:04:07 PM -12.4460 130.9740 109° East 263 303 2,500 1,765 Climbing FlightAware ADS-B
Thu 01:04:28 PM -12.4588 130.9972 109° East 249 287 3,400 3,000 Climbing Aus ATC (RADAR)
Thu 01:04:37 PM -12.4690 131.0030 109° East 269 310 4,000 3,474 Climbing FlightAware ADS-B
Thu 01:04:47 PM -12.4790 131.0060 164° South 271 312 4,500 3,000 Climbing FlightAware ADS-B
Thu 01:05:17 PM -12.5170 131.0080 177° South 276 318 6,000 2,880 Climbing FlightAware ADS-B
Thu 01:05:37 PM -12.5467 131.0109 177° South 266 306 6,900 2,600 Climbing Aus ATC (RADAR)
Thu 01:05:47 PM -12.5580 131.0120 177° South 284 327 7,300 2,400 Climbing FlightAware ADS-B
Thu 01:06:12 PM -12.5880 131.0190 167° South 292 336 8,300 2,160 Climbing FlightAware ADS-B
Thu 01:06:37 PM -12.6204 131.0416 167° South 288 331 9,100 2,200 Climbing Aus ATC (RADAR)
Thu 01:06:42 PM -12.6240 131.0440 167° South 302 348 9,400 1,867 Climbing FlightAware ADS-B
Thu 01:07:22 PM -12.6710 131.0760 146° Southeast 324 373 10,500 1,300 Climbing FlightAware ADS-B
Thu 01:07:42 PM -12.7034 131.0894 146° Southeast 316 364 10,700 933 Climbing Aus ATC (RADAR)
Thu 01:08:07 PM -12.7410 131.1030 146° Southeast 366 421 11,200 1,754 Climbing FlightAware ADS-B
Thu 01:08:47 PM -12.8059 131.1267 146° Southeast 351 404 12,600 1,950 Climbing Aus ATC (RADAR)
Thu 01:08:47 PM -12.8030 131.1260 146° Southeast 371 427 12,500 2,100 Descending FlightAware ADS-B
Thu 01:09:27 PM -12.8700 131.1520 159° South 376 433 14,000 2,000 Climbing FlightAware ADS-B
Thu 01:09:47 PM -12.9047 131.1650 159° South 364 419 14,500 1,467 Climbing Aus ATC (RADAR)
Thu 01:10:12 PM -12.9430 131.1800 159° South 387 445 15,100 1,569 Climbing FlightAware ADS-B
Thu 01:10:52 PM -13.0145 131.2066 159° South 378 435 16,200 1,650 Climbing Aus ATC (RADAR)
Thu 01:10:52 PM -13.0110 131.2060 159° South 397 457 16,200 1,467 Level FlightAware ADS-B
Thu 01:11:37 PM -13.0890 131.2360 159° South 404 465 17,300 1,477 Climbing FlightAware ADS-B
Thu 01:11:57 PM -13.1290 131.2501 159° South 395 455 17,800 1,500 Climbing Aus ATC (RADAR)
Thu 01:12:17 PM -13.1630 131.2640 159° South 413 475 18,300 1,385 Climbing FlightAware ADS-B
Thu 01:13:02 PM -13.2410 131.2940 159° South 418 481 19,300 1,341 Climbing FlightAware ADS-B
Thu 01:13:42 PM -13.3170 131.3230 160° South 425 489 20,200 1,300 Climbing FlightAware ADS-B
Thu 01:14:02 PM -13.3573 131.3373 160° South 416 479 20,600 1,200 Climbing Aus ATC (RADAR)
Thu 01:14:22 PM -13.3920 131.3520 160° South 432 497 21,000 1,292 Climbing FlightAware ADS-B
Thu 01:15:07 PM -13.4780 131.3840 160° South 433 498 22,000 1,200 Climbing FlightAware ADS-B
Thu 01:15:47 PM -13.5520 131.4130 159° South 438 504 22,700 892 Climbing FlightAware ADS-B
Thu 01:16:21 PM -13.6226 131.4377 159° South 435 501 23,100 667 Climbing Aus ATC (RADAR)
Thu 01:16:32 PM -13.6370 131.4450 159° South 447 514 23,200 941 Climbing FlightAware ADS-B
Thu 01:17:12 PM -13.7180 131.4760 160° South 452 520 23,900 900 Climbing FlightAware ADS-B
Thu 01:17:52 PM -13.7960 131.5060 160° South 459 528 24,400 835 Climbing FlightAware ADS-B
Thu 01:18:31 PM -13.8796 131.5356 160° South 451 519 25,000 933 Climbing Aus ATC (RADAR)
Thu 01:18:37 PM -13.8830 131.5400 160° South 463 533 25,100 913 Climbing FlightAware ADS-B
Thu 01:19:17 PM -13.9690 131.5720 160° South 469 540 25,700 1,017 Climbing FlightAware ADS-B
Thu 01:19:36 PM -14.0113 131.5871 160° South 458 527 26,100 1,050 Climbing Aus ATC (RADAR)
Thu 01:19:57 PM -14.0480 131.6030 160° South 468 539 26,400 800 Climbing FlightAware ADS-B
Thu 01:20:36 PM -14.1337 131.6340 160° South 461 531 26,900 933 Climbing Aus ATC (RADAR)
Thu 01:20:42 PM -14.1430 131.6390 160° South 471 542 27,100 1,043 Climbing FlightAware ADS-B
Thu 01:21:22 PM -14.2180 131.6680 159° South 469 540 27,700 844 Climbing FlightAware ADS-B
Thu 01:21:46 PM -14.2769 131.6894 159° South 461 531 28,000 900 Climbing Aus ATC (RADAR)
Thu 01:22:02 PM -14.3050 131.7020 159° South 472 543 28,300 1,000 Climbing FlightAware ADS-B
Thu 01:22:46 PM -14.3999 131.7362 159° South 461 531 29,000 933 Climbing Aus ATC (RADAR)
Thu 01:22:47 PM -14.3960 131.7370 159° South 470 541 29,000 913 Level FlightAware ADS-B
Thu 01:23:32 PM -14.4890 131.7730 159° South 468 539 29,700 844 Climbing FlightAware ADS-B
Thu 01:23:51 PM -14.5322 131.7878 159° South 459 528 29,900 750 Climbing Aus ATC (RADAR)
Thu 01:24:12 PM -14.5700 131.8040 159° South 468 539 30,200 787 Climbing FlightAware ADS-B
Thu 01:24:52 PM -14.6510 131.8360 159° South 468 539 30,700 635 Climbing FlightAware ADS-B
Thu 01:25:37 PM -14.7420 131.8710 160° South 470 541 31,100 696 Climbing FlightAware ADS-B
Thu 01:26:01 PM -14.7970 131.8896 160° South 459 528 31,500 1,050 Climbing Aus ATC (RADAR)
Thu 01:26:17 PM -14.8260 131.9030 160° South 465 535 31,800 857 Climbing FlightAware ADS-B
Thu 01:26:57 PM -14.9050 131.9340 159° South 467 537 32,300 847 Climbing FlightAware ADS-B
Thu 01:27:42 PM -14.9970 131.9700 159° South 463 533 33,000 618 Climbing FlightAware ADS-B
Thu 01:28:05 PM -15.0491 131.9878 159° South 453 521 33,000  Level Aus ATC (RADAR)
Thu 01:28:22 PM -15.0770 132.0010 159° South 459 528 33,000  Level FlightAware ADS-B
Thu 01:29:07 PM -15.1690 132.0360 160° South 466 536 33,000  Level FlightAware ADS-B
Thu 01:29:47 PM -15.2490 132.0680 159° South 466 536 33,000 -95 Level FlightAware ADS-B
Thu 01:30:10 PM -15.3003 132.0859 159° South 457 526 32,900  Descending Aus ATC (RADAR)
Thu 01:30:27 PM -15.3300 132.0990 159° South 465 535 33,000 83 Climbing FlightAware ADS-B
Thu 01:31:22 PM -15.4390 132.1420 159° South 467 537 33,000  Level FlightAware ADS-B
Thu 01:32:07 PM -15.5200 132.1740 159° South 467 537 33,000 -82 Level FlightAware ADS-B
Thu 01:32:35 PM -15.5953 132.2014 159° South 469 540 32,900  Descending Aus ATC (RADAR)
Thu 01:32:47 PM -15.6130 132.2100 159° South 468 539 33,000 105 Climbing FlightAware ADS-B
Thu 01:33:32 PM -15.7040 132.2450 160° South 469 540 33,000  Level FlightAware ADS-B
Thu 01:34:12 PM -15.7850 132.2770 159° South 471 542 33,000 -83 Level FlightAware ADS-B
Thu 01:34:44 PM -15.8580 132.3052 159° South 464 534 32,900  Descending Aus ATC (RADAR)
Thu 01:34:47 PM -15.8520 132.3040 159° South 476 548 33,000 140 Climbing FlightAware ADS-B
Thu 01:35:27 PM -15.9400 132.3370 160° South 482 555 33,000 -97 Level FlightAware ADS-B
Thu 01:35:49 PM -15.9946 132.3595 160° South 476 548 32,900  Descending Aus ATC (RADAR)
Thu 01:36:12 PM -16.0310 132.3730 160° South 483 556 33,000  Climbing FlightAware ADS-B
Thu 01:36:54 PM -16.1313 132.4117 160° South 476 548 32,900  Descending Aus ATC (RADAR)
Thu 01:37:02 PM -16.1370 132.4150 160° South 483 556 33,000 125 Climbing FlightAware ADS-B
Thu 01:37:42 PM -16.2240 132.4490 159° South 482 555 33,000 -105 Level FlightAware ADS-B
Thu 01:37:59 PM -16.2670 132.4676 159° South 478 550 32,900  Descending Aus ATC (RADAR)
Thu 01:38:22 PM -16.3110 132.4830 159° South 481 554 33,000  Climbing FlightAware ADS-B
Thu 01:38:59 PM -16.3917 132.5173 159° South 474 545 32,900  Descending Aus ATC (RADAR)
Thu 01:39:07 PM -16.4030 132.5200 159° South 480 552 33,000 125 Climbing FlightAware ADS-B
Thu 01:39:47 PM -16.4870 132.5530 159° South 480 552 33,000 -105 Level FlightAware ADS-B
Thu 01:40:04 PM -16.5270 132.5713 159° South 477 549 32,900  Descending Aus ATC (RADAR)
Thu 01:40:27 PM -16.5710 132.5860 159° South 480 552 33,000  Climbing FlightAware ADS-B
Thu 01:41:09 PM -16.6622 132.6243 159° South 473 544 32,900  Descending Aus ATC (RADAR)
Thu 01:41:12 PM -16.6580 132.6200 159° South 479 551 33,000 140 Climbing FlightAware ADS-B
Thu 01:41:52 PM -16.7440 132.6540 159° South 479 551 33,000 -105 Level FlightAware ADS-B
Thu 01:42:09 PM -16.7868 132.6735 159° South 475 547 32,900  Descending Aus ATC (RADAR)
Thu 01:42:37 PM -16.8420 132.6930 159° South 479 551 33,000 88 Climbing FlightAware ADS-B
Thu 01:43:17 PM -16.9260 132.7260 159° South 479 551 33,000 -143 Level FlightAware ADS-B
Thu 01:43:19 PM -16.9323 132.7311 159° South 475 547 32,900  Descending Aus ATC (RADAR)
Thu 01:44:02 PM -17.0170 132.7590 161° South 478 550 33,000 72 Climbing FlightAware ADS-B
Thu 01:44:42 PM -17.0990 132.7910 160° South 479 551 33,000 -74 Level FlightAware ADS-B
Thu 01:45:23 PM -17.1915 132.8322 160° South 472 543 32,900  Descending Aus ATC (RADAR)
Thu 01:45:37 PM -17.2170 132.8360 160° South 478 550 33,000 111 Climbing FlightAware ADS-B
Thu 01:46:17 PM -17.2990 132.8670 160° South 479 551 33,000 -79 Level FlightAware ADS-B
Thu 01:46:53 PM -17.3792 132.9007 160° South 472 543 32,900  Descending Aus ATC (RADAR)
Thu 01:47:02 PM -17.3930 132.9020 160° South 479 551 33,000 122 Climbing FlightAware ADS-B
Thu 01:47:42 PM -17.4760 132.9340 160° South 480 552 33,000 107 Level FlightAware ADS-B
Thu 01:47:58 PM -17.5154 132.9648 160° South 481 554 33,100  Climbing Aus ATC (RADAR)
Thu 01:48:27 PM -17.5730 132.9710 160° South 480 552 33,000  Descending FlightAware ADS-B
Thu 01:49:03 PM -17.6501 133.0074 160° South 477 549 33,100  Climbing Aus ATC (RADAR)
Thu 01:49:07 PM -17.6560 133.0020 160° South 480 552 33,000 -136 Descending FlightAware ADS-B
Thu 01:49:47 PM -17.7400 133.0340 160° South 480 552 33,000  Level FlightAware ADS-B
Thu 01:50:32 PM -17.8330 133.0690 160° South 479 551 33,000  Level FlightAware ADS-B
Thu 01:51:12 PM -17.9160 133.1010 160° South 478 550 33,000 146 Level FlightAware ADS-B
Thu 01:51:13 PM -17.9221 133.1049 160° South 461 531 33,100  Climbing Aus ATC (RADAR)
Thu 01:51:57 PM -18.0100 133.1370 160° South 479 551 33,000 -71 Descending FlightAware ADS-B
Thu 01:52:37 PM -18.0960 133.1690 161° South 478 550 33,000  Level FlightAware ADS-B
Thu 01:53:22 PM -18.1860 133.2040 160° South 478 550 33,000  Level FlightAware ADS-B
Thu 01:54:17 PM -18.3030 133.2490 160° South 478 550 33,000  Level FlightAware ADS-B
Thu 01:55:12 PM -18.4060 133.2890 160° South 478 550 33,000  Level FlightAware ADS-B
Thu 01:55:52 PM -18.4930 133.3220 160° South 479 551 33,000  Level FlightAware ADS-B
Thu 01:56:07 PM -18.5604 133.3532 170° South 33,000  Level Aus ATC (Calculated)
Thu 01:56:37 PM -18.5920 133.3590 160° South 478 550 33,000  Level FlightAware ADS-B
Thu 01:57:17 PM -18.6780 133.3920 160° South 477 549 33,000  Level FlightAware ADS-B
Thu 01:58:02 PM -18.7700 133.4280 160° South 477 549 33,000  Level FlightAware ADS-B
Thu 01:58:42 PM -18.8550 133.4600 160° South 479 551 33,000  Level FlightAware ADS-B
Thu 01:59:22 PM -18.9370 133.4920 160° South 480 552 33,000  Level FlightAware ADS-B
Thu 02:00:07 PM -19.0360 133.5300 160° South 482 555 33,000  Level FlightAware ADS-B
Thu 02:00:47 PM -19.1170 133.5610 160° South 483 556 33,000  Level FlightAware ADS-B
Thu 02:01:07 PM -19.2234 133.6089 318° Northwest 33,000  Level Aus ATC (Calculated)
Thu 02:01:32 PM -19.2120 133.5980 160° South 484 557 33,000  Level FlightAware ADS-B
Thu 02:02:12 PM -19.2950 133.6300 160° South 484 557 33,000  Level FlightAware ADS-B
Thu 02:02:26 PM -19.4024 133.6783 327° Northwest 33,000  Level Aus ATC (Calculated)
Thu 02:02:52 PM -19.3800 133.6630 160° South 483 556 33,000  Level FlightAware ADS-B
Thu 02:03:33 PM -19.5786 133.7468 337° Northwest 33,000  Level Aus ATC (Calculated)
Thu 02:03:37 PM -19.4770 133.7010 160° South 483 556 33,000  Level FlightAware ADS-B
Thu 02:04:17 PM -19.5620 133.7340 160° South 483 556 33,000  Level FlightAware ADS-B
Thu 02:05:02 PM -19.6460 133.7660 160° South 481 554 33,000  Level FlightAware ADS-B
Thu 02:05:42 PM -19.7370 133.8020 160° South 481 554 33,000  Level FlightAware ADS-B
Thu 02:06:06 PM -19.9254 133.8820 336° Northwest 33,000  Level Aus ATC (Calculated)
Thu 02:06:32 PM -19.8440 133.8430 160° South 481 554 33,000  Level FlightAware ADS-B
Thu 02:07:22 PM -19.9480 133.8840 160° South 481 554 33,000  Level FlightAware ADS-B
Thu 02:08:02 PM -20.0310 133.9170 160° South 484 557 33,000  Level FlightAware ADS-B
Thu 02:08:06 PM -20.1773 133.9807 335° Northwest 33,000  Level Aus ATC (Calculated)
Thu 02:08:42 PM -20.1160 133.9500 160° South 487 560 33,000 444 Level FlightAware ADS-B
Thu 02:08:51 PM -20.2593 134.0129 333° Northwest 33,000 800 Level Aus ATC (Calculated)
Thu 02:09:27 PM -20.2130 133.9880 160° South 484 557 33,600 947 Climbing FlightAware ADS-B
Thu 02:10:07 PM -20.2960 134.0200 160° South 484 557 34,200 776 Climbing FlightAware ADS-B
Thu 02:10:52 PM -20.3900 134.0570 160° South 484 557 34,700 565 Climbing FlightAware ADS-B
Thu 02:11:32 PM -20.4740 134.0900 160° South 483 556 35,000 212 Climbing FlightAware ADS-B
Thu 02:12:17 PM -20.5690 134.1280 159° South 479 551 35,000  Level FlightAware ADS-B
Thu 02:12:57 PM -20.6540 134.1610 160° South 481 554 35,000  Level FlightAware ADS-B
Thu 02:13:35 PM -20.8284 134.2373 336° Northwest 33,000  Descending Aus ATC (Calculated)
Thu 02:13:37 PM -20.7380 134.1940 160° South 480 552 35,000 2,553 Climbing FlightAware ADS-B
Thu 02:14:22 PM -20.8310 134.2310 160° South 479 551 35,000  Level FlightAware ADS-B
Thu 02:15:02 PM -20.9130 134.2640 159° South 483 556 35,000  Level FlightAware ADS-B
Thu 02:15:42 PM -21.0000 134.2980 160° South 486 559 35,000  Level FlightAware ADS-B
Thu 02:16:22 PM -21.0830 134.3310 160° South 488 562 35,000  Level FlightAware ADS-B
Thu 02:16:41 PM -21.2125 134.3898 330° Northwest 33,000  Descending Aus ATC (Calculated)
Thu 02:17:07 PM -21.1810 134.3700 160° South 490 564 35,000 1,556 Climbing FlightAware ADS-B
Thu 02:18:02 PM -21.2940 134.4150 160° South 488 562 35,100  Climbing FlightAware ADS-B
Thu 02:18:43 PM -21.4339 134.4781 332° Northwest 33,000 -133 Descending Aus ATC (Calculated)
Thu 02:18:47 PM -21.3920 134.4540 160° South 488 562 35,000 3,077 Climbing FlightAware ADS-B
Thu 02:19:22 PM -21.4640 134.4820 160° South 487 560 35,000  Level FlightAware ADS-B
Thu 02:19:41 PM -21.5780 134.5357 304° West 33,000  Descending Aus ATC (Calculated)
Thu 02:20:12 PM -21.5720 134.5260 159° South 485 558 35,000 1,690 Climbing FlightAware ADS-B
Thu 02:20:52 PM -21.6550 134.5590 159° South 484 557 35,000  Level FlightAware ADS-B
Thu 02:21:32 PM -21.7400 134.5930 160° South 485 558 35,000  Level FlightAware ADS-B
Thu 02:22:17 PM -21.8340 134.6310 159° South 487 560 35,000  Level FlightAware ADS-B
Thu 02:22:57 PM -21.9200 134.6650 160° South 489 563 35,000  Level FlightAware ADS-B
Thu 02:23:37 PM -22.0030 134.6990 159° South 490 564 35,000  Level FlightAware ADS-B
Thu 02:23:43 PM -22.0743 134.7351 174° South 33,000  Descending Aus ATC (Calculated)
Thu 02:24:22 PM -22.1010 134.7380 160° South 490 564 35,000 1,519 Climbing FlightAware ADS-B
Thu 02:25:02 PM -22.1820 134.7710 160° South 488 562 35,000  Level FlightAware ADS-B
Thu 02:25:42 PM -22.2690 134.8060 160° South 487 560 35,000  Level FlightAware ADS-B
Thu 02:26:27 PM -22.3650 134.8450 159° South 484 557 35,000  Level FlightAware ADS-B
Thu 02:27:07 PM -22.4510 134.8790 160° South 482 555 35,000  Level FlightAware ADS-B
Thu 02:27:52 PM -22.5410 134.9160 159° South 482 555 35,000  Level FlightAware ADS-B
Thu 02:28:32 PM -22.6220 134.9490 159° South 483 556 35,000  Level FlightAware ADS-B
Thu 02:28:42 PM -22.7441 135.0065 329° Northwest 33,000  Descending Aus ATC (Calculated)
Thu 02:29:12 PM -22.7100 134.9840 159° South 483 556 35,000 1,500 Climbing FlightAware ADS-B
Thu 02:30:02 PM -22.8140 135.0270 159° South 482 555 35,000  Level FlightAware ADS-B
Thu 02:30:42 PM -22.8990 135.0610 160° South 483 556 35,000  Level FlightAware ADS-B
Thu 02:31:22 PM -22.9850 135.0970 159° South 484 557 35,000  Level FlightAware ADS-B
Thu 02:32:02 PM -23.0680 135.1300 160° South 485 558 35,000  Level FlightAware ADS-B
Thu 02:32:47 PM -23.1640 135.1700 159° South 486 559 35,000  Level FlightAware ADS-B
Thu 02:33:32 PM -23.2540 135.2070 159° South 487 560 35,000  Level FlightAware ADS-B
Thu 02:33:42 PM -23.3611 135.2591 328° Northwest 33,000  Descending Aus ATC (Calculated)
Thu 02:34:07 PM -23.3300 135.2380 159° South 488 562 35,000 1,714 Climbing FlightAware ADS-B
Thu 02:34:52 PM -23.4250 135.2770 159° South 489 563 35,000  Level FlightAware ADS-B
Thu 02:35:37 PM -23.5200 135.3160 159° South 488 562 35,000  Level FlightAware ADS-B
Thu 02:36:12 PM -23.5930 135.3460 159° South 488 562 35,000  Level FlightAware ADS-B
Thu 02:37:02 PM -23.6990 135.3900 159° South 485 558 35,000  Level FlightAware ADS-B
Thu 02:37:42 PM -23.7860 135.4260 159° South 485 558 35,000  Level FlightAware ADS-B
Thu 02:38:27 PM -23.8830 135.4660 159° South 484 557 35,000  Level FlightAware ADS-B
Thu 02:38:41 PM -23.9862 135.5176 322° Northwest 33,000  Descending Aus ATC (Calculated)
Thu 02:39:07 PM -23.9670 135.5010 159° South 484 557 35,000 1,818 Climbing FlightAware ADS-B
Thu 02:39:47 PM -24.0490 135.5350 159° South 486 559 35,000  Level FlightAware ADS-B
Thu 02:40:27 PM -24.1320 135.5700 159° South 488 562 35,000  Level FlightAware ADS-B
Thu 02:41:12 PM -24.2280 135.6090 160° South 492 566 35,000  Level FlightAware ADS-B
Thu 02:41:52 PM -24.3140 135.6450 159° South 494 568 35,000  Level FlightAware ADS-B
Thu 02:42:37 PM -24.4120 135.6870 159° South 496 571 35,000  Level FlightAware ADS-B
Thu 02:43:07 PM -24.4770 135.7140 159° South 497 572 35,000  Level FlightAware ADS-B
Thu 02:43:41 PM -24.6091 135.7778 330° Northwest 33,000  Descending Aus ATC (Calculated)
Thu 02:43:47 PM -24.5650 135.7500 159° South 497 572 35,000 1,818 Climbing FlightAware ADS-B
Thu 02:44:47 PM -24.6920 135.8040 159° South 499 574 35,000  Level FlightAware ADS-B
Thu 02:45:32 PM -24.7850 135.8430 159° South 497 572 35,000  Level FlightAware ADS-B
Thu 02:46:17 PM -24.8830 135.8840 159° South 497 572 35,000  Level FlightAware ADS-B
Thu 02:47:02 PM -24.9840 135.9270 159° South 497 572 35,000  Level FlightAware ADS-B
Thu 02:47:37 PM -25.0560 135.9570 159° South 498 573 35,000  Level FlightAware ADS-B
Thu 02:48:22 PM -25.1550 135.9990 159° South 499 574 35,000  Level FlightAware ADS-B
Thu 02:48:40 PM -25.2671 136.0558 320° Northwest 33,000  Descending Aus ATC (Calculated)
Thu 02:49:07 PM -25.2490 136.0390 159° South 499 574 35,000 1,791 Climbing FlightAware ADS-B
Thu 02:49:47 PM -25.3380 136.0770 159° South 500 575 35,000  Level FlightAware ADS-B
Thu 02:50:27 PM -25.4210 136.1120 159° South 498 573 35,000  Level FlightAware ADS-B
Thu 02:51:12 PM -25.5210 136.1540 159° South 497 572 35,000  Level FlightAware ADS-B
Thu 02:51:52 PM -25.6090 136.1920 159° South 496 571 35,000  Level FlightAware ADS-B
Thu 02:52:35 PM -25.7690 136.2700 333° Northwest 33,000  Descending Aus ATC (Calculated)
Thu 02:52:37 PM -25.7040 136.2330 159° South 493 567 35,000 2,857 Climbing FlightAware ADS-B
Thu 02:53:17 PM -25.7910 136.2700 159° South 491 565 35,000  Level FlightAware ADS-B
Thu 02:53:40 PM -25.9205 136.3351 331° Northwest 33,000  Descending Aus ATC (Calculated)
Thu 02:53:57 PM -25.8690 136.3030 159° South 490 564 35,000 1,935 Climbing FlightAware ADS-B
Thu 02:54:42 PM -25.9680 136.3460 159° South 489 563 35,000  Level FlightAware ADS-B
Thu 02:55:22 PM -26.0530 136.3830 159° South 490 564 35,000  Level FlightAware ADS-B
Thu 02:56:17 PM -26.1710 136.4330 159° South 492 566 35,000  Level FlightAware ADS-B
Thu 02:57:02 PM -26.2650 136.4740 159° South 493 567 35,000  Level FlightAware ADS-B
Thu 02:57:42 PM -26.3500 136.5110 159° South 494 568 35,000  Level FlightAware ADS-B
Thu 02:58:27 PM -26.4470 136.5530 159° South 494 568 35,000  Level FlightAware ADS-B
Thu 02:58:39 PM -26.5807 136.6207 328° Northwest 33,000  Descending Aus ATC (Calculated)
Thu 02:59:17 PM -26.5470 136.5970 159° South 496 571 35,000 1,538 Climbing FlightAware ADS-B
Thu 02:59:57 PM -26.6350 136.6340 159° South 497 572 35,000  Level FlightAware ADS-B
Thu 03:00:42 PM -26.7240 136.6750 158° South 497 572 35,000  Level FlightAware ADS-B
Thu 03:01:22 PM -26.7960 136.7070 158° South 497 572 35,000  Level FlightAware ADS-B
Thu 03:02:02 PM -26.8690 136.7400 158° South 497 572 35,000  Level FlightAware ADS-B
Thu 03:02:52 PM -26.9590 136.7810 158° South 497 572 35,000  Level FlightAware ADS-B
Thu 03:03:32 PM -27.0320 136.8140 158° South 497 572 35,000  Level FlightAware ADS-B
Thu 03:03:38 PM -27.2105 136.8964 338° Northwest 33,000  Descending Aus ATC (Calculated)
Thu 03:04:12 PM -27.1040 136.8470 158° South 497 572 35,000 1,622 Climbing FlightAware ADS-B
Thu 03:04:52 PM -27.1770 136.8800 158° South 497 572 35,000  Level FlightAware ADS-B
Thu 03:05:32 PM -27.2490 136.9130 158° South 497 572 35,000  Level FlightAware ADS-B
Thu 03:06:22 PM -27.3400 136.9540 158° South 497 572 35,000  Level FlightAware ADS-B
Thu 03:07:02 PM -27.4120 136.9870 158° South 497 572 35,000  Level FlightAware ADS-B
Thu 03:07:42 PM -27.4850 137.0200 158° South 497 572 35,000  Level FlightAware ADS-B
Thu 03:08:22 PM -27.5570 137.0530 158° South 497 572 35,000  Level FlightAware ADS-B
Thu 03:08:38 PM -27.8476 137.1787 339° North 33,000  Descending Aus ATC (Calculated)
Thu 03:09:02 PM -27.6300 137.0860 158° South 497 572 35,000 1,622 Climbing FlightAware ADS-B
Thu 03:09:52 PM -27.7200 137.1270 158° South 497 572 35,000  Level FlightAware ADS-B
Thu 03:10:32 PM -27.7930 137.1610 158° South 497 572 35,000  Level FlightAware ADS-B
Thu 03:11:12 PM -27.8650 137.1940 158° South 497 572 35,000  Level FlightAware ADS-B
Thu 03:11:52 PM -27.9380 137.2270 158° South 497 572 35,000  Level FlightAware ADS-B
Thu 03:12:10 PM -28.2786 137.3717 340° North 33,000  Descending Aus ATC (Calculated)
Thu 03:12:32 PM -28.0100 137.2600 158° South 497 572 35,000 1,667 Climbing FlightAware ADS-B
Thu 03:13:22 PM -28.1010 137.3010 158° South 497 572 35,000  Level FlightAware ADS-B
Thu 03:13:37 PM -28.4240 137.4372 340° North 33,000  Descending Aus ATC (Calculated)
Thu 03:14:02 PM -28.1730 137.3350 158° South 497 572 35,000 1,846 Climbing FlightAware ADS-B
Thu 03:14:17 PM -28.4921 137.4680 340° North 33,000  Descending Aus ATC (Calculated)
Thu 03:14:42 PM -28.2460 137.3680 158° South 497 572 35,000 110 Climbing FlightAware ADS-B
Thu 03:16:10 PM -28.7561 137.5876 155° Southeast 33,000 10 Descending Aus ATC (Calculated)
Thu 03:18:00 PM -28.9644 137.7382 148° Southeast  Level Estimated
Thu 03:19:00 PM -29.0779 137.8207 148° Southeast  Level Estimated
Thu 03:19:12 PM -29.1600 137.7719 154° Southeast 33,000  Level Aus ATC (Calculated)
Thu 03:21:00 PM -29.3634 137.9225 147° Southeast  Level Estimated
Thu 03:22:00 PM -29.4763 138.0065 147° Southeast  Level Estimated
Thu 03:23:00 PM -29.5891 138.0906 147° Southeast  Level Estimated
Thu 03:24:00 PM -29.7019 138.1749 147° Southeast  Level Estimated
Thu 03:24:11 PM -29.7906 138.0627 152° Southeast 33,000  Level Aus ATC (Calculated)
Thu 03:26:00 PM -29.9937 138.2194 146° Southeast  Level Estimated
Thu 03:27:00 PM -30.1054 138.3059 146° Southeast  Level Estimated
Thu 03:27:10 PM -30.1956 138.2515 149° Southeast 33,000  Level Aus ATC (Calculated)
Thu 03:29:00 PM -30.3990 138.4130 146° Southeast  Level Estimated
Thu 03:29:11 PM -30.5245 138.4061 143° Southeast 33,000  Level Aus ATC (Calculated)
Thu 03:31:00 PM -30.7246 138.5689 145° Southeast  Level Estimated
Thu 03:31:11 PM -30.7369 138.6220 148° Southeast 33,000  Level Aus ATC (Calculated)
Thu 03:32:00 PM -30.8348 138.6588 145° Southeast  Level Estimated
Thu 03:33:00 PM -30.9448 138.7489 145° Southeast  Level Estimated
Thu 03:34:00 PM -31.0475 138.8748 145° Southeast  Level Estimated
Thu 03:34:15 PM -30.9258 138.7600 145° Southeast 476 548 35,200  Level Aus ATC (RADAR)
Thu 03:35:05 PM -31.0128 138.8643 134° Southeast 513 590 35,200  Level Aus ATC (RADAR)
Thu 03:36:25 PM -31.1532 139.0066 139° Southeast 517 595 35,200  Level Aus ATC (RADAR)
Thu 03:37:30 PM -31.2663 139.1230 139° Southeast 507 583 35,200  Level Aus ATC (RADAR)
Thu 03:38:35 PM -31.3796 139.2394 139° Southeast 505 581 35,200  Level Aus ATC (RADAR)
Thu 03:39:40 PM -31.4936 139.3606 138° Southeast 512 589 35,200  Level Aus ATC (RADAR)
Thu 03:40:45 PM -31.6070 139.4810 138° Southeast 509 586 35,200  Level Aus ATC (RADAR)
Thu 03:41:49 PM -31.7208 139.6018 138° Southeast 511 588 35,200  Level Aus ATC (RADAR)
Thu 03:42:55 PM -31.8343 139.7231 138° Southeast 510 587 35,200  Level Aus ATC (RADAR)
Thu 03:43:59 PM -31.9470 139.8419 138° Southeast 508 585 35,200 -47 Level Aus ATC (RADAR)
Thu 03:45:04 PM -32.0597 139.9630 138° Southeast 507 583 35,100  Descending Aus ATC (RADAR)
Thu 03:46:09 PM -32.1724 140.0847 138° Southeast 509 586 35,200 31 Climbing Aus ATC (RADAR)
Thu 03:48:19 PM -32.3962 140.3253 138° Southeast 500 575 35,200 -71 Level Aus ATC (RADAR)
Thu 03:48:57 PM -32.4540 140.3870 138° Southeast 503 579 35,000 -164 Descending FlightAware ADS-B
Thu 03:49:32 PM -32.5080 140.4460 137° Southeast 501 577 35,000 324 Level FlightAware ADS-B
Thu 03:49:34 PM -32.5239 140.4639 138° Southeast 499 574 35,200  Climbing Aus ATC (RADAR)
Thu 03:50:17 PM -32.5820 140.5280 137° Southeast 500 575 35,000 -102 Descending FlightAware ADS-B
Thu 03:50:33 PM -32.6256 140.5750 137° Southeast 493 567 35,100  Climbing Aus ATC (RADAR)
Thu 03:51:02 PM -32.6630 140.6160 137° Southeast 498 573 35,000 92 Descending FlightAware ADS-B
Thu 03:51:38 PM -32.7361 140.6954 137° Southeast 496 571 35,200  Climbing Aus ATC (RADAR)
Thu 03:52:22 PM -32.7980 140.7650 137° Southeast 490 564 35,000  Descending FlightAware ADS-B
Thu 03:52:38 PM -32.8371 140.8066 137° Southeast 497 572 35,200  Climbing Aus ATC (RADAR)
Thu 03:53:02 PM -32.8530 140.8280 137° Southeast 490 564 35,000 -100 Descending FlightAware ADS-B
Thu 03:53:38 PM -32.9373 140.9165 137° Southeast 492 566 35,100  Climbing Aus ATC (RADAR)
Thu 03:53:52 PM -32.9230 140.9080 137° Southeast 490 564 35,000 -111 Descending FlightAware ADS-B
Thu 03:54:32 PM -32.9780 140.9720 136° Southeast 490 564 35,000  Level FlightAware ADS-B
Thu 03:55:12 PM -33.0330 141.0360 136° Southeast 490 564 35,000 85 Level FlightAware ADS-B
Thu 03:55:43 PM -33.1450 141.1468 136° Southeast 490 564 35,100  Climbing Aus ATC (RADAR)
Thu 03:55:52 PM -33.0890 141.1000 136° Southeast 490 564 35,000 -122 Descending FlightAware ADS-B
Thu 03:56:32 PM -33.1440 141.1640 136° Southeast 490 564 35,000 214 Level FlightAware ADS-B
Thu 03:56:48 PM -33.2520 141.2656 136° Southeast 486 559 35,200  Climbing Aus ATC (RADAR)
Thu 03:57:22 PM -33.2140 141.2430 136° Southeast 490 564 35,000  Descending FlightAware ADS-B
Thu 03:57:48 PM -33.3525 141.3774 136° Southeast 491 565 35,200  Climbing Aus ATC (RADAR)
Thu 03:58:02 PM -33.2690 141.3080 136° Southeast 490 564 35,000 -222 Descending FlightAware ADS-B
Thu 03:58:42 PM -33.3250 141.3720 136° Southeast 490 564 35,000 214 Level FlightAware ADS-B
Thu 03:58:58 PM -33.4684 141.5073 136° Southeast 489 563 35,200  Climbing Aus ATC (RADAR)
Thu 03:59:22 PM -33.3800 141.4360 136° Southeast 490 564 35,000 -188 Descending FlightAware ADS-B
Thu 04:00:02 PM -33.4350 141.5000 136° Southeast 490 564 35,000 293 Level FlightAware ADS-B
Thu 04:00:03 PM -33.5758 141.6274 136° Southeast 488 562 35,200  Climbing Aus ATC (RADAR)
Thu 04:00:52 PM -33.5050 141.5800 136° Southeast 490 564 35,000 -135 Descending FlightAware ADS-B
Thu 04:01:32 PM -33.5600 141.6440 136° Southeast 490 564 35,000 77 Level FlightAware ADS-B
Thu 04:03:28 PM -33.7972 141.8767 136° Southeast 491 565 35,200 91 Climbing Aus ATC (RADAR)
Thu 04:03:44 PM -33.8290 141.9132 136° Southeast 486 559 35,200  Level Aus ATC (RADAR)
Thu 04:05:52 PM -34.1127 142.2368 137° Southeast 482 555 35,200 -81 Level Aus ATC (RADAR)
Thu 04:06:12 PM -34.1650 142.2970 137° Southeast 472 543 35,000 -200 Descending FlightAware ADS-B
Thu 04:06:52 PM -34.2290 142.3700 137° Southeast 471 542 35,000  Level FlightAware ADS-B
Thu 04:07:37 PM -34.3040 142.4560 137° Southeast 472 543 35,000 182 Level FlightAware ADS-B
Thu 04:07:58 PM -34.3432 142.5032 137° Southeast 475 547 35,200  Climbing Aus ATC (RADAR)
Thu 04:08:32 PM -34.3920 142.5580 137° Southeast 471 542 35,000  Descending FlightAware ADS-B
Thu 04:09:03 PM -34.4468 142.6224 137° Southeast 473 544 35,200  Climbing Aus ATC (RADAR)
Thu 04:09:12 PM -34.4560 142.6330 137° Southeast 471 542 35,000 -222 Descending FlightAware ADS-B
Thu 04:09:57 PM -34.5250 142.7130 136° Southeast 471 542 35,000  Level FlightAware ADS-B
Thu 04:10:32 PM -34.5820 142.7790 136° Southeast 470 541 35,000 237 Level FlightAware ADS-B
Thu 04:11:13 PM -34.6528 142.8622 136° Southeast 472 543 35,300 120 Climbing Aus ATC (RADAR)
Thu 04:11:22 PM -34.6610 142.8710 136° Southeast 472 543 35,100 -367 Descending FlightAware ADS-B
Thu 04:12:02 PM -34.7220 142.9420 136° Southeast 468 539 35,000 109 Descending FlightAware ADS-B
Thu 04:12:17 PM -34.7544 142.9807 136° Southeast 464 534 35,200  Climbing Aus ATC (RADAR)
Thu 04:12:42 PM -34.7860 143.0180 136° Southeast 459 528 35,000  Descending FlightAware ADS-B
Thu 04:13:17 PM -34.8472 143.0896 136° Southeast 462 532 35,200  Climbing Aus ATC (RADAR)
Thu 04:13:27 PM -34.8540 143.0980 136° Southeast 457 526 35,000 -240 Descending FlightAware ADS-B
Thu 04:14:07 PM -34.9190 143.1730 137° Southeast 457 526 35,000  Level FlightAware ADS-B
Thu 04:14:42 PM -34.9700 143.2280 139° Southeast 459 528 35,000  Level FlightAware ADS-B
Thu 04:15:21 PM -35.0506 143.2956 139° Southeast 453 521 35,000  Level Aus ATC (RADAR)
Thu 04:15:37 PM -35.0670 143.3060 139° Southeast 455 524 35,000  Level FlightAware ADS-B
Thu 04:16:26 PM -35.1672 143.3832 139° Southeast 454 522 35,000 36 Level Aus ATC (RADAR)
Thu 04:18:26 PM -35.3835 143.5466 148° Southeast 455 524 35,100  Climbing Aus ATC (RADAR)
Thu 04:18:41 PM -35.4102 143.5670 148° Southeast 454 522 35,000 -81 Descending Aus ATC (RADAR)
Thu 04:19:40 PM -35.5167 143.6484 148° Southeast 453 521 35,000  Level Aus ATC (RADAR)
Thu 04:21:00 PM -35.6594 143.7541 149° Southeast 447 514 35,000  Level Aus ATC (RADAR)
Thu 04:22:05 PM -35.7741 143.8431 148° Southeast 450 518 35,000  Level Aus ATC (RADAR)
Thu 04:23:20 PM -35.9075 143.9468 148° Southeast 454 522 35,000 46 Level Aus ATC (RADAR)
Thu 04:24:15 PM -36.0051 144.0224 148° Southeast 451 519 35,100 -250 Climbing Aus ATC (RADAR)
Thu 04:25:20 PM -36.1207 144.1123 148° Southeast 451 519 34,500 -1,289 Descending Aus ATC (RADAR)
Thu 04:26:30 PM -36.2432 144.2077 148° Southeast 437 503 32,200 -2,104 Descending Aus ATC (RADAR)
Thu 04:27:34 PM -36.3551 144.2947 148° Southeast 435 501 29,800 -2,226 Descending Aus ATC (RADAR)
Thu 04:28:34 PM -36.4578 144.3752 148° Southeast 429 494 27,600 -2,064 Descending Aus ATC (RADAR)
Thu 04:29:39 PM -36.5653 144.4602 148° Southeast 412 474 25,500 -1,890 Descending Aus ATC (RADAR)
Thu 04:29:47 PM -36.5680 144.4630 148° Southeast 403 464 25,300 -2,125 Descending FlightAware ADS-B
Thu 04:30:27 PM -36.6310 144.5130 148° Southeast 402 463 23,800 -2,118 Descending FlightAware ADS-B
Thu 04:31:12 PM -36.7000 144.5680 147° Southeast 386 444 22,300 -2,182 Descending FlightAware ADS-B
Thu 04:31:44 PM -36.7565 144.6119 147° Southeast 372 428 21,000 -2,100 Descending Aus ATC (RADAR)
Thu 04:31:52 PM -36.7560 144.6120 147° Southeast 369 425 20,900 -2,000 Descending FlightAware ADS-B
Thu 04:32:32 PM -36.8190 144.6550 151° Southeast 348 400 19,400 -2,333 Descending FlightAware ADS-B
Thu 04:34:34 PM -37.0192 144.6993 151° Southeast 331 381 14,600 -2,321 Descending Aus ATC (RADAR)
Thu 04:34:49 PM -37.0418 144.7045 170° South 329 379 14,100 -2,025 Descending Aus ATC (RADAR)
Thu 04:35:54 PM -37.1373 144.7252 170° South 317 365 11,900 -1,614 Descending Aus ATC (RADAR)
Thu 04:37:14 PM -37.2466 144.7487 170° South 283 326 10,200 -1,165 Descending Aus ATC (RADAR)
Thu 04:37:37 PM -37.2710 144.7540 170° South 249 287 9,900 -1,132 Descending FlightAware ADS-B
Thu 04:38:07 PM -37.3050 144.7610 171° South 248 285 9,200 -1,200 Descending FlightAware ADS-B
Thu 04:38:52 PM -37.3570 144.7720 170° South 249 287 8,400 -1,099 Descending FlightAware ADS-B
Thu 04:39:18 PM -37.3900 144.7804 170° South 254 292 7,900 -989 Descending Aus ATC (RADAR)
Thu 04:40:23 PM -37.4633 144.7991 169° South 247 284 6,900 -1,015 Descending Aus ATC (RADAR)
Thu 04:41:28 PM -37.5366 144.8149 170° South 241 277 5,700 -981 Descending Aus ATC (RADAR)
Thu 04:42:07 PM -37.5640 144.8500 170° South 258 297 5,200 -738 Descending FlightAware ADS-B
Thu 04:42:33 PM -37.5655 144.8925 170° South 250 288 4,900 -933 Descending Aus ATC (RADAR)
Thu 04:42:52 PM -37.5660 144.9130 170° South 252 290 4,500 -1,034 Descending FlightAware ADS-B
Thu 04:43:02 PM -37.5670 144.9270 95° East 250 288 4,400 -600 Descending FlightAware ADS-B
Thu 04:43:32 PM -37.5690 144.9670 94° East 233 268 4,100 -545 Descending FlightAware ADS-B
Thu 04:43:57 PM -37.5710 145.0010 94° East 221 254 3,900 -750 Descending FlightAware ADS-B
Thu 04:44:12 PM -37.5750 145.0200 105° East 201 231 3,600 -800 Descending FlightAware ADS-B
Thu 04:44:27 PM -37.5850 145.0300 142° Southeast 185 213 3,500 -400 Descending FlightAware ADS-B
Thu 04:44:42 PM -37.5970 145.0330 169° South 165 190 3,400 -400 Descending FlightAware ADS-B
Thu 04:44:57 PM -37.6100 145.0310 187° South 161 185 3,300 -300 Descending FlightAware ADS-B
Thu 04:45:22 PM -37.6270 145.0300 183° South 162 186 3,200 -391 Descending FlightAware ADS-B
Thu 04:45:43 PM -37.6493 145.0280 183° South 170 196 3,000 -400 Descending Aus ATC (RADAR)
Thu 04:45:52 PM -37.6510 145.0280 183° South 163 188 3,000 -250 Level FlightAware ADS-B
Thu 04:46:07 PM -37.6610 145.0260 189° South 167 192 2,900  Descending FlightAware ADS-B
Thu 04:46:17 PM -37.6680 145.0160 229° Southwest 160 184 3,000 -240 Climbing FlightAware ADS-B
Thu 04:46:32 PM -37.6700 145.0020 260° West 160 184 2,800 -833 Descending FlightAware ADS-B
Thu 04:46:53 PM -37.6696 144.9784 260° West 157 181 2,500 -800 Descending Aus ATC (RADAR)
Thu 04:47:02 PM -37.6700 144.9740 260° West 154 177 2,400 -706 Descending FlightAware ADS-B
Thu 04:47:27 PM -37.6680 144.9540 277° West 142 163 2,100 -750 Descending FlightAware ADS-B
Thu 04:47:42 PM -37.6680 144.9410 270° West 134 154 1,900 -800 Descending FlightAware ADS-B
Thu 04:48:12 PM -37.6660 144.9190 277° West 122 140 1,500 -667 Descending FlightAware ADS-B
Thu 04:48:27 PM -37.6660 144.9080 270° West 122 140 1,400 -600 Descending FlightAware ADS-B
Thu 04:48:52 PM -37.6643 144.8866 270° West 122 140 1,100 -720 Descending Aus ATC (RADAR)
Thu 04:48:52 PM -37.6650 144.8900 270° West 122 140 1,100 -600 Level FlightAware ADS-B
Thu 04:49:22 PM -37.6640 144.8690 273° West 121 139 800 -655 Descending FlightAware ADS-B
Thu 04:49:47 PM -37.6620 144.8510 278° West 123 142 500 -720 Descending FlightAware ADS-B

Login

Don't have an account? Register now (free) for customized features, flight alerts, and more!